sensor_id;sensor_type;location;lat;lon;timestamp;P1;durP1;ratioP1;P2;durP2;ratioP2
60973;SDS011;46846;51.528;5.076;2022-08-14T00:02:13;430.80;;;409.75;;
60973;SDS011;46846;51.528;5.076;2022-08-14T00:04:38;426.25;;;405.38;;
60973;SDS011;46846;51.528;5.076;2022-08-14T00:07:04;430.73;;;409.77;;
60973;SDS011;46846;51.528;5.076;2022-08-14T00:09:30;432.20;;;411.27;;
60973;SDS011;46846;51.528;5.076;2022-08-14T00:11:55;416.73;;;396.45;;
60973;SDS011;46846;51.528;5.076;2022-08-14T00:14:21;411.20;;;390.77;;
60973;SDS011;46846;51.528;5.076;2022-08-14T00:16:47;422.70;;;402.17;;
60973;SDS011;46846;51.528;5.076;2022-08-14T00:19:14;427.40;;;406.50;;
60973;SDS011;46846;51.528;5.076;2022-08-14T00:21:40;415.20;;;394.95;;
60973;SDS011;46846;51.528;5.076;2022-08-14T00:24:05;421.15;;;400.25;;
60973;SDS011;46846;51.528;5.076;2022-08-14T00:26:31;410.17;;;390.13;;
60973;SDS011;46846;51.528;5.076;2022-08-14T00:28:56;415.48;;;395.08;;
60973;SDS011;46846;51.528;5.076;2022-08-14T00:31:21;428.00;;;407.10;;
60973;SDS011;46846;51.528;5.076;2022-08-14T00:33:48;421.38;;;400.42;;
60973;SDS011;46846;51.528;5.076;2022-08-14T00:36:14;412.42;;;392.30;;
60973;SDS011;46846;51.528;5.076;2022-08-14T00:38:39;423.25;;;402.45;;
60973;SDS011;46846;51.528;5.076;2022-08-14T00:41:05;416.85;;;396.42;;
60973;SDS011;46846;51.528;5.076;2022-08-14T00:43:35;418.48;;;397.92;;
60973;SDS011;46846;51.528;5.076;2022-08-14T00:46:06;423.00;;;401.85;;
60973;SDS011;46846;51.528;5.076;2022-08-14T00:48:34;405.42;;;385.60;;
60973;SDS011;46846;51.528;5.076;2022-08-14T00:51:00;422.88;;;402.33;;
60973;SDS011;46846;51.528;5.076;2022-08-14T00:53:26;416.20;;;395.85;;
60973;SDS011;46846;51.528;5.076;2022-08-14T00:55:52;413.85;;;393.13;;
60973;SDS011;46846;51.528;5.076;2022-08-14T00:58:20;415.98;;;395.58;;
60973;SDS011;46846;51.528;5.076;2022-08-14T01:00:55;422.20;;;401.50;;
60973;SDS011;46846;51.528;5.076;2022-08-14T01:03:22;424.88;;;403.55;;
60973;SDS011;46846;51.528;5.076;2022-08-14T01:05:50;421.95;;;401.30;;
60973;SDS011;46846;51.528;5.076;2022-08-14T01:08:21;409.00;;;388.92;;
60973;SDS011;46846;51.528;5.076;2022-08-14T01:10:48;419.52;;;398.98;;
60973;SDS011;46846;51.528;5.076;2022-08-14T01:13:15;412.75;;;392.40;;
60973;SDS011;46846;51.528;5.076;2022-08-14T01:15:48;419.52;;;399.08;;
60973;SDS011;46846;51.528;5.076;2022-08-14T01:18:17;404.77;;;384.80;;
60973;SDS011;46846;51.528;5.076;2022-08-14T01:21:01;410.67;;;390.13;;
60973;SDS011;46846;51.528;5.076;2022-08-14T01:23:28;414.38;;;394.23;;
60973;SDS011;46846;51.528;5.076;2022-08-14T01:25:55;402.65;;;382.23;;
60973;SDS011;46846;51.528;5.076;2022-08-14T01:28:21;430.90;;;409.83;;
60973;SDS011;46846;51.528;5.076;2022-08-14T01:30:46;398.33;;;378.83;;
60973;SDS011;46846;51.528;5.076;2022-08-14T01:33:14;417.65;;;397.25;;
60973;SDS011;46846;51.528;5.076;2022-08-14T01:35:40;411.50;;;391.30;;
60973;SDS011;46846;51.528;5.076;2022-08-14T01:38:09;408.02;;;387.42;;
60973;SDS011;46846;51.528;5.076;2022-08-14T01:40:37;409.15;;;388.77;;
60973;SDS011;46846;51.528;5.076;2022-08-14T01:43:06;411.60;;;391.05;;
60973;SDS011;46846;51.528;5.076;2022-08-14T01:45:32;401.35;;;381.58;;
60973;SDS011;46846;51.528;5.076;2022-08-14T01:47:58;407.52;;;387.10;;
60973;SDS011;46846;51.528;5.076;2022-08-14T01:50:23;412.65;;;392.40;;
60973;SDS011;46846;51.528;5.076;2022-08-14T01:52:49;411.45;;;391.33;;
60973;SDS011;46846;51.528;5.076;2022-08-14T01:55:14;399.45;;;379.85;;
60973;SDS011;46846;51.528;5.076;2022-08-14T01:57:44;409.77;;;389.58;;
60973;SDS011;46846;51.528;5.076;2022-08-14T02:00:09;413.63;;;393.40;;
60973;SDS011;46846;51.528;5.076;2022-08-14T02:02:43;412.05;;;391.95;;
60973;SDS011;46846;51.528;5.076;2022-08-14T02:05:12;409.95;;;389.83;;
60973;SDS011;46846;51.528;5.076;2022-08-14T02:07:38;423.58;;;402.55;;
60973;SDS011;46846;51.528;5.076;2022-08-14T02:10:04;394.38;;;374.73;;
60973;SDS011;46846;51.528;5.076;2022-08-14T02:12:31;403.50;;;383.75;;
60973;SDS011;46846;51.528;5.076;2022-08-14T02:14:56;408.17;;;387.75;;
60973;SDS011;46846;51.528;5.076;2022-08-14T02:17:22;423.75;;;402.38;;
60973;SDS011;46846;51.528;5.076;2022-08-14T02:19:47;401.67;;;381.88;;
60973;SDS011;46846;51.528;5.076;2022-08-14T02:22:13;404.02;;;384.27;;
60973;SDS011;46846;51.528;5.076;2022-08-14T02:24:38;407.13;;;386.83;;
60973;SDS011;46846;51.528;5.076;2022-08-14T02:27:04;394.88;;;375.17;;
60973;SDS011;46846;51.528;5.076;2022-08-14T02:29:30;388.80;;;369.30;;
60973;SDS011;46846;51.528;5.076;2022-08-14T02:31:56;396.88;;;377.30;;
60973;SDS011;46846;51.528;5.076;2022-08-14T02:34:25;392.15;;;372.48;;
60973;SDS011;46846;51.528;5.076;2022-08-14T02:36:54;392.95;;;373.65;;
60973;SDS011;46846;51.528;5.076;2022-08-14T02:39:23;406.80;;;386.65;;
60973;SDS011;46846;51.528;5.076;2022-08-14T02:41:51;408.05;;;387.73;;
60973;SDS011;46846;51.528;5.076;2022-08-14T02:44:16;399.20;;;379.55;;
60973;SDS011;46846;51.528;5.076;2022-08-14T02:46:47;392.08;;;372.52;;
60973;SDS011;46846;51.528;5.076;2022-08-14T02:49:14;393.80;;;374.13;;
60973;SDS011;46846;51.528;5.076;2022-08-14T02:51:39;397.33;;;377.77;;
60973;SDS011;46846;51.528;5.076;2022-08-14T02:54:05;400.75;;;381.05;;
60973;SDS011;46846;51.528;5.076;2022-08-14T02:56:32;385.80;;;366.52;;
60973;SDS011;46846;51.528;5.076;2022-08-14T02:58:59;392.23;;;372.30;;
60973;SDS011;46846;51.528;5.076;2022-08-14T03:01:26;394.83;;;375.42;;
60973;SDS011;46846;51.528;5.076;2022-08-14T03:03:53;394.75;;;375.20;;
60973;SDS011;46846;51.528;5.076;2022-08-14T03:06:20;389.45;;;369.90;;
60973;SDS011;46846;51.528;5.076;2022-08-14T03:08:46;391.80;;;372.40;;
60973;SDS011;46846;51.528;5.076;2022-08-14T03:11:12;387.05;;;367.77;;
60973;SDS011;46846;51.528;5.076;2022-08-14T03:13:39;405.45;;;385.33;;
60973;SDS011;46846;51.528;5.076;2022-08-14T03:16:08;389.85;;;370.70;;
60973;SDS011;46846;51.528;5.076;2022-08-14T03:18:39;389.13;;;369.73;;
60973;SDS011;46846;51.528;5.076;2022-08-14T03:21:07;404.73;;;384.25;;
60973;SDS011;46846;51.528;5.076;2022-08-14T03:23:37;387.77;;;368.58;;
60973;SDS011;46846;51.528;5.076;2022-08-14T03:26:04;394.63;;;375.02;;
60973;SDS011;46846;51.528;5.076;2022-08-14T03:28:42;388.40;;;368.08;;
60973;SDS011;46846;51.528;5.076;2022-08-14T03:31:09;380.38;;;361.40;;
60973;SDS011;46846;51.528;5.076;2022-08-14T03:33:36;385.40;;;366.40;;
60973;SDS011;46846;51.528;5.076;2022-08-14T03:36:05;386.67;;;367.25;;
60973;SDS011;46846;51.528;5.076;2022-08-14T03:38:36;372.67;;;353.85;;
60973;SDS011;46846;51.528;5.076;2022-08-14T03:41:09;374.55;;;355.30;;
60973;SDS011;46846;51.528;5.076;2022-08-14T03:43:42;386.05;;;366.80;;
60973;SDS011;46846;51.528;5.076;2022-08-14T03:46:08;371.38;;;352.95;;
60973;SDS011;46846;51.528;5.076;2022-08-14T03:48:35;403.17;;;383.00;;
60973;SDS011;46846;51.528;5.076;2022-08-14T03:51:01;374.08;;;354.85;;
60973;SDS011;46846;51.528;5.076;2022-08-14T03:53:27;382.83;;;363.80;;
60973;SDS011;46846;51.528;5.076;2022-08-14T03:55:52;377.63;;;358.50;;
60973;SDS011;46846;51.528;5.076;2022-08-14T03:58:20;382.50;;;363.23;;
60973;SDS011;46846;51.528;5.076;2022-08-14T04:00:46;386.63;;;367.10;;
60973;SDS011;46846;51.528;5.076;2022-08-14T04:03:12;367.08;;;348.75;;
60973;SDS011;46846;51.528;5.076;2022-08-14T04:05:38;373.50;;;354.60;;
60973;SDS011;46846;51.528;5.076;2022-08-14T04:08:07;378.33;;;359.55;;
60973;SDS011;46846;51.528;5.076;2022-08-14T04:10:32;384.45;;;365.33;;
60973;SDS011;46846;51.528;5.076;2022-08-14T04:12:58;381.98;;;362.67;;
60973;SDS011;46846;51.528;5.076;2022-08-14T04:15:28;366.67;;;348.38;;
60973;SDS011;46846;51.528;5.076;2022-08-14T04:17:53;380.35;;;361.42;;
60973;SDS011;46846;51.528;5.076;2022-08-14T04:20:19;378.65;;;359.70;;
60973;SDS011;46846;51.528;5.076;2022-08-14T04:22:46;375.33;;;356.60;;
60973;SDS011;46846;51.528;5.076;2022-08-14T04:25:14;372.73;;;353.77;;
60973;SDS011;46846;51.528;5.076;2022-08-14T04:27:40;379.80;;;360.63;;
60973;SDS011;46846;51.528;5.076;2022-08-14T04:30:05;377.10;;;357.88;;
60973;SDS011;46846;51.528;5.076;2022-08-14T04:32:31;367.88;;;349.63;;
60973;SDS011;46846;51.528;5.076;2022-08-14T04:34:58;365.00;;;346.20;;
60973;SDS011;46846;51.528;5.076;2022-08-14T04:37:24;373.90;;;354.95;;
60973;SDS011;46846;51.528;5.076;2022-08-14T04:40:09;372.83;;;354.35;;
60973;SDS011;46846;51.528;5.076;2022-08-14T04:42:53;368.70;;;349.98;;
60973;SDS011;46846;51.528;5.076;2022-08-14T04:45:38;384.25;;;364.33;;
60973;SDS011;46846;51.528;5.076;2022-08-14T04:48:10;356.55;;;338.75;;
60973;SDS011;46846;51.528;5.076;2022-08-14T04:50:41;367.55;;;348.83;;
60973;SDS011;46846;51.528;5.076;2022-08-14T04:53:12;363.80;;;345.63;;
60973;SDS011;46846;51.528;5.076;2022-08-14T04:55:40;360.85;;;342.92;;
60973;SDS011;46846;51.528;5.076;2022-08-14T04:58:06;357.50;;;339.77;;
60973;SDS011;46846;51.528;5.076;2022-08-14T05:00:34;358.30;;;340.27;;
60973;SDS011;46846;51.528;5.076;2022-08-14T05:03:00;375.77;;;357.25;;
60973;SDS011;46846;51.528;5.076;2022-08-14T05:05:27;366.98;;;348.38;;
60973;SDS011;46846;51.528;5.076;2022-08-14T05:07:54;362.23;;;343.63;;
60973;SDS011;46846;51.528;5.076;2022-08-14T05:10:20;354.98;;;337.13;;
60973;SDS011;46846;51.528;5.076;2022-08-14T05:12:48;379.08;;;360.15;;
60973;SDS011;46846;51.528;5.076;2022-08-14T05:15:13;371.05;;;352.63;;
60973;SDS011;46846;51.528;5.076;2022-08-14T05:17:42;360.10;;;342.05;;
60973;SDS011;46846;51.528;5.076;2022-08-14T05:20:07;361.92;;;343.88;;
60973;SDS011;46846;51.528;5.076;2022-08-14T05:22:33;378.05;;;359.20;;
60973;SDS011;46846;51.528;5.076;2022-08-14T05:24:58;365.60;;;347.15;;
60973;SDS011;46846;51.528;5.076;2022-08-14T05:27:25;374.77;;;355.88;;
60973;SDS011;46846;51.528;5.076;2022-08-14T05:29:51;362.83;;;344.75;;
60973;SDS011;46846;51.528;5.076;2022-08-14T05:32:17;359.13;;;341.17;;
60973;SDS011;46846;51.528;5.076;2022-08-14T05:34:42;370.73;;;351.92;;
60973;SDS011;46846;51.528;5.076;2022-08-14T05:37:08;376.23;;;357.48;;
60973;SDS011;46846;51.528;5.076;2022-08-14T05:39:33;375.50;;;356.40;;
60973;SDS011;46846;51.528;5.076;2022-08-14T05:41:58;350.77;;;333.20;;
60973;SDS011;46846;51.528;5.076;2022-08-14T05:44:24;373.67;;;355.13;;
60973;SDS011;46846;51.528;5.076;2022-08-14T05:46:49;360.60;;;341.92;;
60973;SDS011;46846;51.528;5.076;2022-08-14T05:49:14;349.23;;;331.20;;
60973;SDS011;46846;51.528;5.076;2022-08-14T05:51:40;345.23;;;328.10;;
60973;SDS011;46846;51.528;5.076;2022-08-14T05:54:06;343.40;;;326.08;;
60973;SDS011;46846;51.528;5.076;2022-08-14T05:56:31;369.05;;;350.70;;
60973;SDS011;46846;51.528;5.076;2022-08-14T05:58:57;361.55;;;342.45;;
60973;SDS011;46846;51.528;5.076;2022-08-14T06:01:23;360.15;;;341.58;;
60973;SDS011;46846;51.528;5.076;2022-08-14T06:03:48;365.02;;;346.58;;
60973;SDS011;46846;51.528;5.076;2022-08-14T06:06:14;371.08;;;352.63;;
60973;SDS011;46846;51.528;5.076;2022-08-14T06:08:39;356.02;;;338.23;;
60973;SDS011;46846;51.528;5.076;2022-08-14T06:11:05;359.25;;;341.35;;
60973;SDS011;46846;51.528;5.076;2022-08-14T06:13:32;369.33;;;350.70;;
60973;SDS011;46846;51.528;5.076;2022-08-14T06:15:59;358.00;;;338.95;;
60973;SDS011;46846;51.528;5.076;2022-08-14T06:18:24;361.85;;;343.80;;
60973;SDS011;46846;51.528;5.076;2022-08-14T06:20:50;357.60;;;339.60;;
60973;SDS011;46846;51.528;5.076;2022-08-14T06:23:16;361.70;;;343.80;;
60973;SDS011;46846;51.528;5.076;2022-08-14T06:25:41;343.52;;;326.33;;
60973;SDS011;46846;51.528;5.076;2022-08-14T06:28:14;351.02;;;333.58;;
60973;SDS011;46846;51.528;5.076;2022-08-14T06:30:40;369.35;;;350.80;;
60973;SDS011;46846;51.528;5.076;2022-08-14T06:33:06;368.88;;;350.48;;
60973;SDS011;46846;51.528;5.076;2022-08-14T06:35:31;351.33;;;333.77;;
60973;SDS011;46846;51.528;5.076;2022-08-14T06:37:58;346.65;;;329.40;;
60973;SDS011;46846;51.528;5.076;2022-08-14T06:40:28;352.55;;;334.67;;
60973;SDS011;46846;51.528;5.076;2022-08-14T06:42:57;347.98;;;330.48;;
60973;SDS011;46846;51.528;5.076;2022-08-14T06:45:23;363.05;;;345.05;;
60973;SDS011;46846;51.528;5.076;2022-08-14T06:47:49;353.33;;;335.77;;
60973;SDS011;46846;51.528;5.076;2022-08-14T06:50:16;356.45;;;338.65;;
60973;SDS011;46846;51.528;5.076;2022-08-14T06:52:43;366.20;;;347.33;;
60973;SDS011;46846;51.528;5.076;2022-08-14T06:55:10;357.75;;;339.90;;
60973;SDS011;46846;51.528;5.076;2022-08-14T06:57:37;370.00;;;351.00;;
60973;SDS011;46846;51.528;5.076;2022-08-14T07:00:13;362.30;;;344.27;;
60973;SDS011;46846;51.528;5.076;2022-08-14T07:02:41;356.13;;;338.20;;
60973;SDS011;46846;51.528;5.076;2022-08-14T07:05:25;359.15;;;341.33;;
60973;SDS011;46846;51.528;5.076;2022-08-14T07:10:47;350.60;;;332.88;;
60973;SDS011;46846;51.528;5.076;2022-08-14T07:13:14;362.13;;;344.05;;
60973;SDS011;46846;51.528;5.076;2022-08-14T07:15:41;356.98;;;339.10;;
60973;SDS011;46846;51.528;5.076;2022-08-14T07:18:09;363.38;;;344.75;;
60973;SDS011;46846;51.528;5.076;2022-08-14T07:20:36;360.80;;;342.98;;
60973;SDS011;46846;51.528;5.076;2022-08-14T07:23:04;348.40;;;330.80;;
60973;SDS011;46846;51.528;5.076;2022-08-14T07:25:30;359.42;;;341.40;;
60973;SDS011;46846;51.528;5.076;2022-08-14T07:27:56;359.95;;;341.65;;
60973;SDS011;46846;51.528;5.076;2022-08-14T07:30:22;372.73;;;353.85;;
60973;SDS011;46846;51.528;5.076;2022-08-14T07:32:48;349.00;;;331.27;;
60973;SDS011;46846;51.528;5.076;2022-08-14T07:35:15;366.70;;;348.38;;
60973;SDS011;46846;51.528;5.076;2022-08-14T07:37:40;360.88;;;343.05;;
60973;SDS011;46846;51.528;5.076;2022-08-14T07:40:06;362.00;;;343.95;;
60973;SDS011;46846;51.528;5.076;2022-08-14T07:42:32;345.70;;;328.00;;
60973;SDS011;46846;51.528;5.076;2022-08-14T07:44:58;367.73;;;349.52;;
60973;SDS011;46846;51.528;5.076;2022-08-14T07:47:24;364.25;;;346.20;;
60973;SDS011;46846;51.528;5.076;2022-08-14T07:49:58;363.27;;;345.00;;
60973;SDS011;46846;51.528;5.076;2022-08-14T07:52:27;366.52;;;348.27;;
60973;SDS011;46846;51.528;5.076;2022-08-14T07:54:53;366.88;;;348.60;;
60973;SDS011;46846;51.528;5.076;2022-08-14T07:57:19;368.00;;;349.48;;
60973;SDS011;46846;51.528;5.076;2022-08-14T07:59:44;366.38;;;347.42;;
60973;SDS011;46846;51.528;5.076;2022-08-14T08:02:10;367.52;;;348.83;;
60973;SDS011;46846;51.528;5.076;2022-08-14T08:04:36;375.15;;;356.20;;
60973;SDS011;46846;51.528;5.076;2022-08-14T08:07:07;365.67;;;347.42;;
60973;SDS011;46846;51.528;5.076;2022-08-14T08:09:33;361.35;;;343.35;;
60973;SDS011;46846;51.528;5.076;2022-08-14T08:12:00;376.30;;;357.58;;
60973;SDS011;46846;51.528;5.076;2022-08-14T08:14:27;384.77;;;365.27;;
60973;SDS011;46846;51.528;5.076;2022-08-14T08:16:55;374.83;;;355.40;;
60973;SDS011;46846;51.528;5.076;2022-08-14T08:19:21;369.45;;;350.88;;
60973;SDS011;46846;51.528;5.076;2022-08-14T08:21:46;383.13;;;363.58;;
60973;SDS011;46846;51.528;5.076;2022-08-14T08:24:12;380.77;;;360.15;;
60973;SDS011;46846;51.528;5.076;2022-08-14T08:26:37;386.73;;;367.42;;
60973;SDS011;46846;51.528;5.076;2022-08-14T08:29:03;374.10;;;355.33;;
60973;SDS011;46846;51.528;5.076;2022-08-14T08:31:28;386.10;;;366.27;;
60973;SDS011;46846;51.528;5.076;2022-08-14T08:33:55;377.98;;;358.95;;
60973;SDS011;46846;51.528;5.076;2022-08-14T08:36:21;374.08;;;355.15;;
60973;SDS011;46846;51.528;5.076;2022-08-14T08:38:47;389.08;;;369.85;;
60973;SDS011;46846;51.528;5.076;2022-08-14T08:41:14;387.27;;;368.17;;
60973;SDS011;46846;51.528;5.076;2022-08-14T08:43:40;395.30;;;373.98;;
60973;SDS011;46846;51.528;5.076;2022-08-14T08:46:06;395.88;;;376.17;;
60973;SDS011;46846;51.528;5.076;2022-08-14T08:51:26;413.92;;;393.63;;
60973;SDS011;46846;51.528;5.076;2022-08-14T08:54:00;404.40;;;384.38;;
60973;SDS011;46846;51.528;5.076;2022-08-14T08:56:37;402.65;;;381.50;;
60973;SDS011;46846;51.528;5.076;2022-08-14T08:59:14;385.30;;;366.23;;
60973;SDS011;46846;51.528;5.076;2022-08-14T09:01:48;393.17;;;372.60;;
60973;SDS011;46846;51.528;5.076;2022-08-14T09:04:22;400.17;;;380.52;;
60973;SDS011;46846;51.528;5.076;2022-08-14T09:06:49;405.17;;;385.10;;
60973;SDS011;46846;51.528;5.076;2022-08-14T09:09:28;391.77;;;371.42;;
60973;SDS011;46846;51.528;5.076;2022-08-14T09:11:55;406.63;;;385.92;;
60973;SDS011;46846;51.528;5.076;2022-08-14T09:14:25;421.63;;;400.85;;
60973;SDS011;46846;51.528;5.076;2022-08-14T09:16:53;394.60;;;374.85;;
60973;SDS011;46846;51.528;5.076;2022-08-14T09:19:20;400.23;;;380.45;;
60973;SDS011;46846;51.528;5.076;2022-08-14T09:21:46;397.83;;;376.92;;
60973;SDS011;46846;51.528;5.076;2022-08-14T09:24:12;417.25;;;396.13;;
60973;SDS011;46846;51.528;5.076;2022-08-14T09:26:39;419.40;;;398.23;;
60973;SDS011;46846;51.528;5.076;2022-08-14T09:29:06;421.63;;;400.83;;
60973;SDS011;46846;51.528;5.076;2022-08-14T09:31:32;411.40;;;391.10;;
60973;SDS011;46846;51.528;5.076;2022-08-14T09:42:31;412.67;;;391.38;;
60973;SDS011;46846;51.528;5.076;2022-08-14T09:45:47;416.50;;;395.85;;
60973;SDS011;46846;51.528;5.076;2022-08-14T09:47:59;412.45;;;391.92;;
60973;SDS011;46846;51.528;5.076;2022-08-14T09:50:29;421.50;;;400.67;;
60973;SDS011;46846;51.528;5.076;2022-08-14T09:53:08;420.60;;;399.30;;
60973;SDS011;46846;51.528;5.076;2022-08-14T09:55:35;434.42;;;412.92;;
60973;SDS011;46846;51.528;5.076;2022-08-14T10:00:40;440.23;;;418.43;;
60973;SDS011;46846;51.528;5.076;2022-08-14T10:03:10;427.70;;;406.27;;
60973;SDS011;46846;51.528;5.076;2022-08-14T10:05:37;423.20;;;401.75;;
60973;SDS011;46846;51.528;5.076;2022-08-14T10:08:03;427.52;;;406.45;;
60973;SDS011;46846;51.528;5.076;2022-08-14T10:10:40;428.98;;;407.58;;
60973;SDS011;46846;51.528;5.076;2022-08-14T10:13:06;439.08;;;417.48;;
60973;SDS011;46846;51.528;5.076;2022-08-14T10:15:44;445.25;;;423.30;;
60973;SDS011;46846;51.528;5.076;2022-08-14T10:18:11;434.40;;;412.45;;
60973;SDS011;46846;51.528;5.076;2022-08-14T10:20:40;446.23;;;424.23;;
60973;SDS011;46846;51.528;5.076;2022-08-14T10:23:15;444.02;;;422.08;;
60973;SDS011;46846;51.528;5.076;2022-08-14T10:25:50;450.95;;;429.00;;
60973;SDS011;46846;51.528;5.076;2022-08-14T10:30:45;433.17;;;411.92;;
60973;SDS011;46846;51.528;5.076;2022-08-14T10:33:30;425.35;;;404.27;;
60973;SDS011;46846;51.528;5.076;2022-08-14T10:35:58;437.55;;;416.05;;
60973;SDS011;46846;51.528;5.076;2022-08-14T10:38:33;455.45;;;433.33;;
60973;SDS011;46846;51.528;5.076;2022-08-14T10:43:37;449.13;;;427.17;;
60973;SDS011;46846;51.528;5.076;2022-08-14T10:46:14;450.35;;;428.33;;
60973;SDS011;46846;51.528;5.076;2022-08-14T10:48:41;444.30;;;421.60;;
60973;SDS011;46846;51.528;5.076;2022-08-14T10:51:24;442.50;;;420.83;;
60973;SDS011;46846;51.528;5.076;2022-08-14T10:53:54;443.88;;;422.00;;
60973;SDS011;46846;51.528;5.076;2022-08-14T10:56:29;445.27;;;423.33;;
60973;SDS011;46846;51.528;5.076;2022-08-14T10:59:04;446.85;;;424.67;;
60973;SDS011;46846;51.528;5.076;2022-08-14T11:01:32;447.98;;;425.08;;
60973;SDS011;46846;51.528;5.076;2022-08-14T11:03:59;452.42;;;430.42;;
60973;SDS011;46846;51.528;5.076;2022-08-14T11:06:24;441.40;;;419.58;;
60973;SDS011;46846;51.528;5.076;2022-08-14T11:08:50;437.02;;;415.50;;
60973;SDS011;46846;51.528;5.076;2022-08-14T11:11:16;455.02;;;432.58;;
60973;SDS011;46846;51.528;5.076;2022-08-14T11:13:43;452.33;;;430.15;;
60973;SDS011;46846;51.528;5.076;2022-08-14T11:16:14;450.85;;;428.92;;
60973;SDS011;46846;51.528;5.076;2022-08-14T11:18:44;450.75;;;428.60;;
60973;SDS011;46846;51.528;5.076;2022-08-14T11:21:13;461.45;;;439.15;;
60973;SDS011;46846;51.528;5.076;2022-08-14T11:23:41;434.38;;;412.90;;
60973;SDS011;46846;51.528;5.076;2022-08-14T11:26:10;456.58;;;433.98;;
60973;SDS011;46846;51.528;5.076;2022-08-14T11:28:37;465.77;;;443.15;;
60973;SDS011;46846;51.528;5.076;2022-08-14T11:31:04;459.58;;;437.15;;
60973;SDS011;46846;51.528;5.076;2022-08-14T11:33:33;452.73;;;430.63;;
60973;SDS011;46846;51.528;5.076;2022-08-14T11:36:01;440.75;;;418.98;;
60973;SDS011;46846;51.528;5.076;2022-08-14T11:38:42;450.35;;;428.38;;
60973;SDS011;46846;51.528;5.076;2022-08-14T11:41:10;439.85;;;417.73;;
60973;SDS011;46846;51.528;5.076;2022-08-14T11:43:40;434.85;;;413.35;;
60973;SDS011;46846;51.528;5.076;2022-08-14T11:46:07;452.25;;;430.17;;
60973;SDS011;46846;51.528;5.076;2022-08-14T11:48:43;448.92;;;427.00;;
60973;SDS011;46846;51.528;5.076;2022-08-14T11:51:17;459.73;;;437.17;;
60973;SDS011;46846;51.528;5.076;2022-08-14T11:53:54;459.45;;;436.90;;
60973;SDS011;46846;51.528;5.076;2022-08-14T11:56:21;451.17;;;429.02;;
60973;SDS011;46846;51.528;5.076;2022-08-14T11:58:52;457.17;;;434.58;;
60973;SDS011;46846;51.528;5.076;2022-08-14T12:01:23;445.63;;;423.75;;
60973;SDS011;46846;51.528;5.076;2022-08-14T12:03:53;459.88;;;437.42;;
60973;SDS011;46846;51.528;5.076;2022-08-14T12:06:23;448.48;;;426.40;;
60973;SDS011;46846;51.528;5.076;2022-08-14T12:08:49;450.60;;;428.55;;
60973;SDS011;46846;51.528;5.076;2022-08-14T12:11:17;455.42;;;433.25;;
60973;SDS011;46846;51.528;5.076;2022-08-14T12:13:44;456.00;;;433.85;;
60973;SDS011;46846;51.528;5.076;2022-08-14T12:16:12;449.73;;;427.60;;
60973;SDS011;46846;51.528;5.076;2022-08-14T12:18:41;454.65;;;432.13;;
60973;SDS011;46846;51.528;5.076;2022-08-14T12:21:21;457.13;;;434.83;;
60973;SDS011;46846;51.528;5.076;2022-08-14T12:26:29;463.25;;;440.73;;
60973;SDS011;46846;51.528;5.076;2022-08-14T12:29:05;454.33;;;432.17;;
60973;SDS011;46846;51.528;5.076;2022-08-14T12:31:35;458.80;;;436.48;;
60973;SDS011;46846;51.528;5.076;2022-08-14T12:34:03;450.30;;;427.73;;
60973;SDS011;46846;51.528;5.076;2022-08-14T12:36:30;468.35;;;445.40;;
60973;SDS011;46846;51.528;5.076;2022-08-14T12:38:57;444.15;;;422.25;;
60973;SDS011;46846;51.528;5.076;2022-08-14T12:41:25;478.88;;;455.38;;
60973;SDS011;46846;51.528;5.076;2022-08-14T12:43:53;469.80;;;446.85;;
60973;SDS011;46846;51.528;5.076;2022-08-14T12:46:22;474.70;;;451.55;;
60973;SDS011;46846;51.528;5.076;2022-08-14T12:48:49;471.67;;;448.75;;
60973;SDS011;46846;51.528;5.076;2022-08-14T12:51:22;478.92;;;455.48;;
60973;SDS011;46846;51.528;5.076;2022-08-14T12:53:50;456.58;;;434.30;;
60973;SDS011;46846;51.528;5.076;2022-08-14T12:56:19;472.42;;;449.38;;
60973;SDS011;46846;51.528;5.076;2022-08-14T12:58:49;481.48;;;458.08;;
60973;SDS011;46846;51.528;5.076;2022-08-14T13:01:17;462.38;;;439.85;;
60973;SDS011;46846;51.528;5.076;2022-08-14T13:04:16;471.08;;;448.17;;
60973;SDS011;46846;51.528;5.076;2022-08-14T13:06:42;483.90;;;460.40;;
60973;SDS011;46846;51.528;5.076;2022-08-14T13:09:09;466.33;;;443.52;;
60973;SDS011;46846;51.528;5.076;2022-08-14T13:11:40;465.88;;;442.80;;
60973;SDS011;46846;51.528;5.076;2022-08-14T13:14:09;458.90;;;436.48;;
60973;SDS011;46846;51.528;5.076;2022-08-14T13:16:38;457.80;;;435.33;;
60973;SDS011;46846;51.528;5.076;2022-08-14T13:19:06;479.35;;;456.00;;
60973;SDS011;46846;51.528;5.076;2022-08-14T13:21:38;474.48;;;451.33;;
60973;SDS011;46846;51.528;5.076;2022-08-14T13:24:03;465.38;;;442.60;;
60973;SDS011;46846;51.528;5.076;2022-08-14T13:26:29;482.50;;;459.20;;
60973;SDS011;46846;51.528;5.076;2022-08-14T13:28:57;463.38;;;440.50;;
60973;SDS011;46846;51.528;5.076;2022-08-14T13:31:26;460.80;;;438.20;;
60973;SDS011;46846;51.528;5.076;2022-08-14T13:33:54;475.48;;;452.27;;
60973;SDS011;46846;51.528;5.076;2022-08-14T13:36:21;465.92;;;443.10;;
60973;SDS011;46846;51.528;5.076;2022-08-14T13:38:51;474.70;;;451.63;;
60973;SDS011;46846;51.528;5.076;2022-08-14T13:41:17;476.42;;;452.95;;
60973;SDS011;46846;51.528;5.076;2022-08-14T13:43:48;471.67;;;448.65;;
60973;SDS011;46846;51.528;5.076;2022-08-14T13:46:15;456.33;;;433.98;;
60973;SDS011;46846;51.528;5.076;2022-08-14T13:48:42;485.90;;;462.38;;
60973;SDS011;46846;51.528;5.076;2022-08-14T13:51:08;476.02;;;452.58;;
60973;SDS011;46846;51.528;5.076;2022-08-14T13:53:37;466.58;;;443.27;;
60973;SDS011;46846;51.528;5.076;2022-08-14T13:56:09;470.60;;;447.73;;
60973;SDS011;46846;51.528;5.076;2022-08-14T13:58:37;464.80;;;441.80;;
60973;SDS011;46846;51.528;5.076;2022-08-14T14:01:03;470.25;;;447.33;;
60973;SDS011;46846;51.528;5.076;2022-08-14T14:03:32;474.10;;;450.83;;
60973;SDS011;46846;51.528;5.076;2022-08-14T14:06:01;475.80;;;452.63;;
60973;SDS011;46846;51.528;5.076;2022-08-14T14:08:27;474.83;;;451.73;;
60973;SDS011;46846;51.528;5.076;2022-08-14T14:10:58;481.38;;;458.00;;
60973;SDS011;46846;51.528;5.076;2022-08-14T14:13:24;472.20;;;449.20;;
60973;SDS011;46846;51.528;5.076;2022-08-14T14:15:51;465.15;;;442.42;;
60973;SDS011;46846;51.528;5.076;2022-08-14T14:18:17;487.48;;;463.88;;
60973;SDS011;46846;51.528;5.076;2022-08-14T14:20:44;490.25;;;466.50;;
60973;SDS011;46846;51.528;5.076;2022-08-14T14:23:11;477.27;;;453.83;;
60973;SDS011;46846;51.528;5.076;2022-08-14T14:25:41;466.15;;;443.50;;
60973;SDS011;46846;51.528;5.076;2022-08-14T14:28:08;483.00;;;459.50;;